createdAt,value
2023-03-05T00:02:08.114Z,4.60
2023-03-05T00:04:39.111Z,4.60
2023-03-05T00:07:08.985Z,4.60
2023-03-05T00:09:36.013Z,4.60
2023-03-05T00:12:02.877Z,4.70
2023-03-05T00:14:29.628Z,4.60
2023-03-05T00:16:56.490Z,4.60
2023-03-05T00:19:23.366Z,4.60
2023-03-05T00:21:50.064Z,4.60
2023-03-05T00:24:18.662Z,4.60
2023-03-05T00:26:46.192Z,4.70
2023-03-05T00:29:18.268Z,4.70
2023-03-05T00:31:45.483Z,4.60
2023-03-05T00:34:15.257Z,4.60
2023-03-05T00:36:44.885Z,4.70
2023-03-05T00:39:12.983Z,4.60
2023-03-05T00:41:40.043Z,4.60
2023-03-05T00:44:07.125Z,4.60
2023-03-05T00:46:36.688Z,4.60
2023-03-05T00:49:07.343Z,4.60
2023-03-05T00:51:34.168Z,4.50
2023-03-05T00:54:01.989Z,4.50
2023-03-05T00:56:28.952Z,4.50
2023-03-05T00:58:56.792Z,4.50
2023-03-05T01:01:24.509Z,4.50
2023-03-05T01:03:51.726Z,4.50
2023-03-05T01:06:18.768Z,4.50
2023-03-05T01:08:45.568Z,4.50
2023-03-05T01:11:13.847Z,4.40
2023-03-05T01:13:41.262Z,4.40
2023-03-05T01:16:08.606Z,4.40
2023-03-05T01:18:35.770Z,4.40
2023-03-05T01:21:04.024Z,4.40
2023-03-05T01:23:30.748Z,4.40
2023-03-05T01:25:59.424Z,4.40
2023-03-05T01:28:27.657Z,4.30
2023-03-05T01:30:54.598Z,4.30
2023-03-05T01:33:21.577Z,4.40
2023-03-05T01:35:49.228Z,4.40
2023-03-05T01:38:16.585Z,4.40
2023-03-05T01:40:43.972Z,4.40
2023-03-05T01:43:13.836Z,4.40
2023-03-05T01:46:19.184Z,4.40
2023-03-05T01:48:50.054Z,4.40
2023-03-05T01:51:20.286Z,4.40
2023-03-05T01:53:47.757Z,4.40
2023-03-05T01:56:15.586Z,4.40
2023-03-05T01:58:43.294Z,4.40
2023-03-05T02:01:10.257Z,4.40
2023-03-05T02:03:37.923Z,4.40
2023-03-05T02:06:07.200Z,4.40
2023-03-05T02:08:34.084Z,4.40
2023-03-05T02:11:02.046Z,4.30
2023-03-05T02:13:33.085Z,4.30
2023-03-05T02:16:01.191Z,4.30
2023-03-05T02:18:28.629Z,4.30
2023-03-05T02:21:02.624Z,4.30
2023-03-05T02:23:34.048Z,4.30
2023-03-05T02:26:01.018Z,4.30
2023-03-05T02:28:33.535Z,4.30
2023-03-05T02:31:01.204Z,4.20
2023-03-05T02:33:28.265Z,4.20
2023-03-05T02:35:55.332Z,4.30
2023-03-05T02:38:22.413Z,4.30
2023-03-05T02:40:49.288Z,4.20
2023-03-05T02:43:17.342Z,4.20
2023-03-05T02:45:44.482Z,4.20
2023-03-05T02:48:11.494Z,4.20
2023-03-05T02:50:39.897Z,4.10
2023-03-05T02:53:07.004Z,4.10
2023-03-05T02:55:34.052Z,4.10
2023-03-05T02:58:01.062Z,4.10
2023-03-05T03:00:28.225Z,4.10
2023-03-05T03:02:55.628Z,4.10
2023-03-05T03:05:22.639Z,4.10
2023-03-05T03:07:49.968Z,4.00
2023-03-05T03:10:17.520Z,4.00
2023-03-05T03:12:45.308Z,4.00
2023-03-05T03:15:15.032Z,4.00
2023-03-05T03:17:41.937Z,3.90
2023-03-05T03:20:11.108Z,4.00
2023-03-05T03:22:37.977Z,3.90
2023-03-05T03:25:06.051Z,3.90
2023-03-05T03:27:33.086Z,3.90
2023-03-05T03:30:02.982Z,3.90
2023-03-05T03:32:29.881Z,3.90
2023-03-05T03:34:56.690Z,4.00
2023-03-05T03:37:23.655Z,3.90
2023-03-05T03:39:50.434Z,3.90
2023-03-05T03:42:20.080Z,3.90
2023-03-05T03:44:47.602Z,3.90
2023-03-05T03:47:14.582Z,3.90
2023-03-05T03:49:41.311Z,3.90
2023-03-05T03:52:08.519Z,3.90
2023-03-05T03:54:35.655Z,3.90
2023-03-05T03:57:02.429Z,3.90
2023-03-05T03:59:29.365Z,3.90
2023-03-05T04:01:56.109Z,3.90
2023-03-05T04:04:23.126Z,3.90
2023-03-05T04:06:50.000Z,3.80
2023-03-05T04:09:16.744Z,3.90
2023-03-05T04:11:43.525Z,3.90
2023-03-05T04:14:10.306Z,3.90
2023-03-05T04:16:37.157Z,3.90
2023-03-05T04:19:04.046Z,3.90
2023-03-05T04:21:30.854Z,3.90
2023-03-05T04:23:57.709Z,3.90
2023-03-05T04:26:24.540Z,3.90
2023-03-05T04:28:51.613Z,3.90
2023-03-05T04:31:20.601Z,3.90
2023-03-05T04:33:47.456Z,3.90
2023-03-05T04:36:14.194Z,3.90
2023-03-05T04:38:41.042Z,3.90
2023-03-05T04:41:07.741Z,3.90
2023-03-05T04:43:34.477Z,3.90
2023-03-05T04:46:01.204Z,3.90
2023-03-05T04:48:27.938Z,3.90
2023-03-05T04:50:54.665Z,3.90
2023-03-05T04:53:21.371Z,3.90
2023-03-05T04:55:55.643Z,3.80
2023-03-05T04:58:22.707Z,3.80
2023-03-05T05:00:49.633Z,3.80
2023-03-05T05:03:16.521Z,3.80
2023-03-05T05:05:43.280Z,3.80
2023-03-05T05:08:10.590Z,3.80
2023-03-05T05:10:41.321Z,3.80
2023-03-05T05:13:08.110Z,3.80
2023-03-05T05:15:34.924Z,3.80
2023-03-05T05:18:01.819Z,3.80
2023-03-05T05:20:28.803Z,3.80
2023-03-05T05:22:55.726Z,3.80
2023-03-05T05:25:22.434Z,3.70
2023-03-05T05:27:49.171Z,3.70
2023-03-05T05:30:16.078Z,3.70
2023-03-05T05:32:42.956Z,3.70
2023-03-05T05:35:10.828Z,3.70
2023-03-05T05:37:37.609Z,3.60
2023-03-05T05:40:05.653Z,3.60
2023-03-05T05:42:33.329Z,3.60
2023-03-05T05:45:00.346Z,3.60
2023-03-05T05:47:27.673Z,3.60
2023-03-05T05:49:54.345Z,3.50
2023-03-05T05:52:21.311Z,3.50
2023-03-05T05:54:48.724Z,3.50
2023-03-05T05:57:15.731Z,3.50
2023-03-05T05:59:42.501Z,3.50
2023-03-05T06:02:11.079Z,3.50
2023-03-05T06:04:38.537Z,3.50
2023-03-05T06:07:05.391Z,3.50
2023-03-05T06:09:32.305Z,3.60
2023-03-05T06:11:59.011Z,3.50
2023-03-05T06:14:25.751Z,3.50
2023-03-05T06:16:52.511Z,3.50
2023-03-05T06:19:19.230Z,3.50
2023-03-05T06:21:45.901Z,3.60
2023-03-05T06:24:13.637Z,3.60
2023-03-05T06:26:40.472Z,3.60
2023-03-05T06:29:07.275Z,3.60
2023-03-05T06:31:36.920Z,3.60
2023-03-05T06:34:04.020Z,3.60
2023-03-05T06:36:31.442Z,3.70
2023-03-05T06:38:58.654Z,3.70
2023-03-05T06:41:28.468Z,3.70
2023-03-05T06:43:56.114Z,3.70
2023-03-05T06:46:31.579Z,3.70
2023-03-05T06:49:01.046Z,3.70
2023-03-05T06:51:30.984Z,3.70
2023-03-05T06:54:01.743Z,3.70
2023-03-05T06:56:31.728Z,3.60
2023-03-05T06:58:59.377Z,3.60
2023-03-05T07:01:26.385Z,3.60
2023-03-05T07:03:55.123Z,3.50
2023-03-05T07:06:23.086Z,3.50
2023-03-05T07:08:49.956Z,3.50
2023-03-05T07:11:19.680Z,3.50
2023-03-05T07:13:49.699Z,3.50
2023-03-05T07:16:26.150Z,3.50
2023-03-05T07:18:53.162Z,3.60
2023-03-05T07:21:25.549Z,3.60
2023-03-05T07:23:58.055Z,3.70
2023-03-05T07:26:25.900Z,3.70
2023-03-05T07:28:53.040Z,3.80
2023-03-05T07:31:22.325Z,3.80
2023-03-05T07:33:50.110Z,3.80
2023-03-05T07:36:17.386Z,3.80
2023-03-05T07:38:44.676Z,3.80
2023-03-05T07:41:13.866Z,3.90
2023-03-05T07:43:40.887Z,3.90
2023-03-05T07:46:10.239Z,4.00
2023-03-05T07:48:37.676Z,4.00
2023-03-05T07:51:10.516Z,4.10
2023-03-05T07:53:37.339Z,4.10
2023-03-05T07:56:04.751Z,4.10
2023-03-05T07:58:31.487Z,4.10
2023-03-05T08:00:58.290Z,4.10
2023-03-05T08:03:25.142Z,4.20
2023-03-05T08:05:52.070Z,4.20
2023-03-05T08:08:18.958Z,4.30
2023-03-05T08:10:45.735Z,4.30
2023-03-05T08:13:12.610Z,4.30
2023-03-05T08:15:39.365Z,4.40
2023-03-05T08:18:06.717Z,4.40
2023-03-05T08:20:36.262Z,4.50
2023-03-05T08:23:04.593Z,4.50
2023-03-05T08:25:33.664Z,4.50
2023-03-05T08:28:00.437Z,4.50
2023-03-05T08:30:27.790Z,4.50
2023-03-05T08:32:55.519Z,4.60
2023-03-05T08:35:23.375Z,4.70
2023-03-05T08:37:50.346Z,4.70
2023-03-05T08:40:22.931Z,4.90
2023-03-05T08:42:51.856Z,4.90
2023-03-05T08:45:18.637Z,5.00
2023-03-05T08:47:45.333Z,5.10
2023-03-05T08:50:12.379Z,5.10
2023-03-05T08:52:39.104Z,5.20
2023-03-05T08:55:06.480Z,5.20
2023-03-05T08:57:33.277Z,5.30
2023-03-05T09:00:00.119Z,5.20
2023-03-05T09:02:27.129Z,5.20
2023-03-05T09:04:53.841Z,5.30
2023-03-05T09:07:20.588Z,5.30
2023-03-05T09:09:47.320Z,5.40
2023-03-05T09:12:16.077Z,5.50
2023-03-05T09:14:42.809Z,5.60
2023-03-05T09:17:09.712Z,5.70
2023-03-05T09:19:36.493Z,5.70
2023-03-05T09:22:03.423Z,5.80
2023-03-05T09:24:30.363Z,5.80
2023-03-05T09:27:00.487Z,5.80
2023-03-05T09:29:27.586Z,5.80
2023-03-05T09:31:54.547Z,5.80
2023-03-05T09:34:22.043Z,5.80
2023-03-05T09:36:49.105Z,5.80
2023-03-05T09:39:16.297Z,5.70
2023-03-05T09:42:19.249Z,5.70
2023-03-05T09:45:22.355Z,5.80
2023-03-05T09:48:35.159Z,5.80
2023-03-05T09:51:05.941Z,5.80
2023-03-05T09:54:02.896Z,5.90
2023-03-05T09:56:35.037Z,5.90
2023-03-05T09:59:14.535Z,5.90
2023-03-05T10:01:44.246Z,5.90
2023-03-05T10:04:21.290Z,5.90
2023-03-05T10:06:50.764Z,5.90
2023-03-05T10:09:42.348Z,5.90
2023-03-05T10:12:12.607Z,6.00
2023-03-05T10:14:41.442Z,6.00
2023-03-05T10:17:39.588Z,6.10
2023-03-05T10:20:27.691Z,6.20
2023-03-05T10:23:08.589Z,6.20
2023-03-05T10:25:48.239Z,6.20
2023-03-05T10:28:40.325Z,6.20
2023-03-05T10:31:25.001Z,6.20
2023-03-05T10:34:25.735Z,6.30
2023-03-05T10:37:29.343Z,6.30
2023-03-05T10:40:09.853Z,6.40
2023-03-05T10:42:45.866Z,6.40
2023-03-05T10:45:39.086Z,6.50
2023-03-05T10:48:35.062Z,6.60
2023-03-05T10:51:12.324Z,6.70
2023-03-05T10:54:20.827Z,6.70
2023-03-05T10:56:47.652Z,6.70
2023-03-05T10:59:14.424Z,6.80
2023-03-05T11:01:41.480Z,6.80
2023-03-05T11:04:27.255Z,6.90
2023-03-05T11:06:53.945Z,6.90
2023-03-05T11:09:29.131Z,7.00
2023-03-05T11:12:18.694Z,7.00
2023-03-05T11:14:46.860Z,7.10
2023-03-05T11:17:30.737Z,7.20
2023-03-05T11:19:58.812Z,7.30
2023-03-05T11:22:26.059Z,7.30
2023-03-05T11:25:11.182Z,7.30
2023-03-05T11:27:44.791Z,7.50
2023-03-05T11:30:27.534Z,7.70
2023-03-05T11:33:20.445Z,7.80
2023-03-05T11:35:49.207Z,7.70
2023-03-05T11:38:27.688Z,7.60
2023-03-05T11:40:57.331Z,7.60
2023-03-05T11:43:25.741Z,7.60
2023-03-05T11:51:42.366Z,8.20
2023-03-05T11:54:16.082Z,8.50
2023-03-05T11:56:44.397Z,8.50
2023-03-05T11:59:29.871Z,8.40
2023-03-05T12:01:57.812Z,8.40
2023-03-05T12:04:25.068Z,8.40
2023-03-05T12:06:58.460Z,8.40
2023-03-05T12:09:49.325Z,8.40
2023-03-05T12:12:45.666Z,8.70
2023-03-05T12:15:22.141Z,9.30
2023-03-05T12:17:55.254Z,9.50
2023-03-05T12:20:38.219Z,9.70
2023-03-05T12:26:13.545Z,9.90
2023-03-05T12:28:43.452Z,9.80
2023-03-05T12:31:10.169Z,9.60
2023-03-05T12:33:45.261Z,9.50
2023-03-05T12:36:20.687Z,9.20
2023-03-05T12:38:58.009Z,9.10
2023-03-05T12:41:26.930Z,8.90
2023-03-05T12:44:06.710Z,8.90
2023-03-05T12:46:35.780Z,9.10
2023-03-05T12:49:26.292Z,9.20
2023-03-05T12:51:55.738Z,9.20
2023-03-05T12:54:33.398Z,9.10
2023-03-05T12:57:04.788Z,9.20
2023-03-05T12:59:48.052Z,9.50
2023-03-05T13:02:32.014Z,9.80
2023-03-05T13:05:03.063Z,9.80
2023-03-05T13:07:29.821Z,9.60
2023-03-05T13:09:58.372Z,9.50
2023-03-05T13:12:27.657Z,9.20
2023-03-05T13:15:06.902Z,9.20
2023-03-05T13:18:03.484Z,9.20
2023-03-05T13:20:40.517Z,9.20
2023-03-05T13:23:16.676Z,9.10
2023-03-05T13:25:45.062Z,8.90
2023-03-05T13:28:14.703Z,8.80
2023-03-05T13:30:57.273Z,8.80
2023-03-05T13:33:29.891Z,8.70
2023-03-05T13:35:57.217Z,8.50
2023-03-05T13:38:29.493Z,8.50
2023-03-05T13:41:20.281Z,8.40
2023-03-05T13:43:58.784Z,8.40
2023-03-05T13:46:34.214Z,8.40
2023-03-05T13:49:26.763Z,8.30
2023-03-05T13:51:56.886Z,8.20
2023-03-05T13:54:25.750Z,8.10
2023-03-05T13:56:55.722Z,8.00
2023-03-05T13:59:35.268Z,8.00
2023-03-05T14:02:14.665Z,8.00
2023-03-05T14:04:44.563Z,7.90
2023-03-05T14:07:37.245Z,7.80
2023-03-05T14:10:05.540Z,7.80
2023-03-05T14:12:43.592Z,7.80
2023-03-05T14:15:31.596Z,7.80
2023-03-05T14:18:13.398Z,7.80
2023-03-05T14:20:58.579Z,7.80
2023-03-05T14:23:31.983Z,7.90
2023-03-05T14:26:31.355Z,7.90
2023-03-05T14:29:02.699Z,8.00
2023-03-05T14:31:34.093Z,8.00
2023-03-05T14:34:03.991Z,8.10
2023-03-05T14:36:32.270Z,8.20
2023-03-05T14:39:00.642Z,8.30
2023-03-05T14:41:42.030Z,8.50
2023-03-05T14:44:19.401Z,8.60
2023-03-05T14:46:50.261Z,8.70
2023-03-05T14:49:17.980Z,8.70
2023-03-05T14:51:46.778Z,8.60
2023-03-05T14:54:23.526Z,8.50
2023-03-05T14:56:50.646Z,8.40
2023-03-05T14:59:19.496Z,8.30
2023-03-05T15:01:46.518Z,8.10
2023-03-05T15:06:57.466Z,7.90
2023-03-05T15:09:50.487Z,7.70
2023-03-05T15:12:24.477Z,7.60
2023-03-05T15:14:53.233Z,7.60
2023-03-05T15:17:33.651Z,7.50
2023-03-05T15:20:00.877Z,7.40
2023-03-05T15:22:52.860Z,7.30
2023-03-05T15:25:21.620Z,7.20
2023-03-05T15:27:49.107Z,7.20
2023-03-05T15:30:27.676Z,7.10
2023-03-05T15:32:56.126Z,7.00
2023-03-05T15:35:24.591Z,7.00
2023-03-05T15:37:52.187Z,6.90
2023-03-05T15:40:19.576Z,6.90
2023-03-05T15:42:46.965Z,6.90
2023-03-05T15:45:15.845Z,6.80
2023-03-05T15:47:42.918Z,6.80
2023-03-05T15:50:10.676Z,6.70
2023-03-05T15:52:37.543Z,6.60
2023-03-05T15:55:04.642Z,6.60
2023-03-05T15:57:38.391Z,6.60
2023-03-05T16:00:07.701Z,6.60
2023-03-05T16:02:37.105Z,6.70
2023-03-05T16:05:04.692Z,6.70
2023-03-05T16:07:33.399Z,6.70
2023-03-05T16:10:00.244Z,6.70
2023-03-05T16:12:31.534Z,6.70
2023-03-05T16:14:59.150Z,6.70
2023-03-05T16:17:26.033Z,6.70
2023-03-05T16:19:55.864Z,6.60
2023-03-05T16:22:23.710Z,6.60
2023-03-05T16:24:50.397Z,6.60
2023-03-05T16:27:17.102Z,6.60
2023-03-05T16:29:43.927Z,6.50
2023-03-05T16:32:10.792Z,6.60
2023-03-05T16:34:37.698Z,6.50
2023-03-05T16:37:06.886Z,6.50
2023-03-05T16:39:33.698Z,6.50
2023-03-05T16:42:00.634Z,6.50
2023-03-05T16:44:27.325Z,6.50
2023-03-05T16:46:54.268Z,6.50
2023-03-05T16:49:21.430Z,6.50
2023-03-05T16:51:49.006Z,6.50
2023-03-05T16:54:15.916Z,6.40
2023-03-05T16:56:42.990Z,6.40
2023-03-05T16:59:10.096Z,6.40
2023-03-05T17:01:36.847Z,6.40
2023-03-05T17:04:03.670Z,6.40
2023-03-05T17:06:32.291Z,6.30
2023-03-05T17:08:59.388Z,6.30
2023-03-05T17:11:26.593Z,6.30
2023-03-05T17:13:53.378Z,6.30
2023-03-05T17:16:21.501Z,6.30
2023-03-05T17:18:48.931Z,6.20
2023-03-05T17:21:16.491Z,6.20
2023-03-05T17:23:43.310Z,6.20
2023-03-05T17:26:13.584Z,6.10
2023-03-05T17:28:43.775Z,6.10
2023-03-05T17:31:14.484Z,6.10
2023-03-05T17:33:42.199Z,6.00
2023-03-05T17:36:20.289Z,6.00
2023-03-05T17:38:53.221Z,6.00
2023-03-05T17:41:20.565Z,6.00
2023-03-05T17:43:47.758Z,5.90
2023-03-05T17:46:15.705Z,5.90
2023-03-05T17:48:42.655Z,5.90
2023-03-05T17:51:13.230Z,5.80
2023-03-05T17:53:40.715Z,5.80
2023-03-05T17:56:12.401Z,5.80
2023-03-05T17:58:59.358Z,5.80
2023-03-05T18:01:33.544Z,5.80
2023-03-05T18:04:00.787Z,5.70
2023-03-05T18:06:27.777Z,5.70
2023-03-05T18:08:54.613Z,5.70
2023-03-05T18:11:21.549Z,5.70
2023-03-05T18:13:48.391Z,5.70
2023-03-05T18:16:19.957Z,5.70
2023-03-05T18:18:53.203Z,5.60
2023-03-05T18:21:21.669Z,5.60
2023-03-05T18:23:48.899Z,5.60
2023-03-05T18:26:15.911Z,5.60
2023-03-05T18:28:42.997Z,5.60
2023-03-05T18:31:10.009Z,5.60
2023-03-05T18:33:38.656Z,5.60
2023-03-05T18:36:06.051Z,5.60
2023-03-05T18:38:33.290Z,5.60
2023-03-05T18:41:03.011Z,5.50
2023-03-05T18:43:30.192Z,5.50
2023-03-05T18:45:57.251Z,5.50
2023-03-05T18:48:24.160Z,5.40
2023-03-05T18:50:54.551Z,5.40
2023-03-05T18:53:22.610Z,5.40
2023-03-05T18:55:51.340Z,5.30
2023-03-05T18:58:18.987Z,5.30
2023-03-05T19:00:49.176Z,5.30
2023-03-05T19:03:16.261Z,5.30
2023-03-05T19:05:43.179Z,5.30
2023-03-05T19:08:10.071Z,5.30
2023-03-05T19:10:37.310Z,5.30
2023-03-05T19:13:35.896Z,5.30
2023-03-05T19:16:18.846Z,5.20
2023-03-05T19:19:16.263Z,5.20
2023-03-05T19:21:59.562Z,5.10
2023-03-05T19:24:29.037Z,5.10
2023-03-05T19:27:10.556Z,5.10
2023-03-05T19:29:46.362Z,5.10
2023-03-05T19:32:16.048Z,5.00
2023-03-05T19:34:45.054Z,5.00
2023-03-05T19:37:12.582Z,5.00
2023-03-05T19:39:39.611Z,5.00
2023-03-05T19:42:06.568Z,5.00
2023-03-05T19:44:33.910Z,5.00
2023-03-05T19:47:00.946Z,5.00
2023-03-05T19:49:28.218Z,5.00
2023-03-05T19:51:55.348Z,4.90
2023-03-05T19:54:24.954Z,4.90
2023-03-05T19:56:54.915Z,4.90
2023-03-05T19:59:23.070Z,4.90
2023-03-05T20:01:49.835Z,4.90
2023-03-05T20:04:20.079Z,4.90
2023-03-05T20:06:47.139Z,4.80
2023-03-05T20:09:14.819Z,4.80
2023-03-05T20:11:42.374Z,4.80
2023-03-05T20:14:09.648Z,4.80
2023-03-05T20:16:37.946Z,4.80
2023-03-05T20:19:06.840Z,4.70
2023-03-05T20:21:37.572Z,4.70
2023-03-05T20:24:09.654Z,4.70
2023-03-05T20:26:38.703Z,4.70
2023-03-05T20:29:05.951Z,4.70
2023-03-05T20:31:36.692Z,4.70
2023-03-05T20:34:13.454Z,4.70
2023-03-05T20:36:40.943Z,4.60
2023-03-05T20:39:08.207Z,4.60
2023-03-05T20:41:37.664Z,4.60
2023-03-05T20:44:04.859Z,4.60
2023-03-05T20:46:34.650Z,4.60
2023-03-05T20:49:03.472Z,4.60
2023-03-05T20:51:33.995Z,4.60
2023-03-05T20:54:05.382Z,4.60
2023-03-05T20:56:33.894Z,4.50
2023-03-05T20:59:04.322Z,4.60
2023-03-05T21:01:33.065Z,4.60
2023-03-05T21:04:01.179Z,4.60
2023-03-05T21:06:29.547Z,4.60
2023-03-05T21:08:56.936Z,4.60
2023-03-05T21:11:23.869Z,4.50
2023-03-05T21:13:50.570Z,4.50
2023-03-05T21:16:20.600Z,4.50
2023-03-05T21:18:48.035Z,4.40
2023-03-05T21:21:14.984Z,4.40
2023-03-05T21:23:41.885Z,4.40
2023-03-05T21:26:09.073Z,4.50
2023-03-05T21:28:36.328Z,4.40
2023-03-05T21:31:09.431Z,4.50
2023-03-05T21:33:37.165Z,4.50
2023-03-05T21:36:04.695Z,4.50
2023-03-05T21:38:37.084Z,4.50
2023-03-05T21:41:04.936Z,4.50
2023-03-05T21:43:31.837Z,4.50
2023-03-05T21:46:01.170Z,4.40
2023-03-05T21:48:27.879Z,4.30
2023-03-05T21:50:55.219Z,4.30
2023-03-05T21:53:22.539Z,4.20
2023-03-05T21:56:02.749Z,4.20
2023-03-05T21:58:31.380Z,4.20
2023-03-05T22:00:58.760Z,4.10
2023-03-05T22:03:27.027Z,4.10
2023-03-05T22:05:55.634Z,4.10
2023-03-05T22:08:23.750Z,4.10
2023-03-05T22:10:50.497Z,4.10
2023-03-05T22:13:17.921Z,4.00
2023-03-05T22:15:53.532Z,4.00
2023-03-05T22:18:29.642Z,4.00
2023-03-05T22:20:57.950Z,4.00
2023-03-05T22:23:28.113Z,3.90
2023-03-05T22:25:59.458Z,3.90
2023-03-05T22:28:27.358Z,3.80
2023-03-05T22:30:54.456Z,3.80
2023-03-05T22:33:23.097Z,3.80
2023-03-05T22:35:50.433Z,3.80
2023-03-05T22:38:18.110Z,3.70
2023-03-05T22:40:47.417Z,3.70
2023-03-05T22:43:14.812Z,3.80
2023-03-05T22:45:41.949Z,3.80
2023-03-05T22:48:12.250Z,3.80
2023-03-05T22:50:40.312Z,3.80
2023-03-05T22:53:07.705Z,3.70
2023-03-05T22:55:37.305Z,3.70
2023-03-05T22:58:03.984Z,3.70
2023-03-05T23:00:30.704Z,3.70
2023-03-05T23:02:57.478Z,3.70
2023-03-05T23:05:24.237Z,3.70
2023-03-05T23:07:50.942Z,3.70
2023-03-05T23:10:26.685Z,3.70
2023-03-05T23:12:54.912Z,3.70
2023-03-05T23:15:26.497Z,3.60
2023-03-05T23:17:53.916Z,3.60
2023-03-05T23:20:23.727Z,3.60
2023-03-05T23:22:52.984Z,3.60
2023-03-05T23:25:20.571Z,3.60
2023-03-05T23:27:47.628Z,3.60
2023-03-05T23:30:19.784Z,3.60
2023-03-05T23:33:02.706Z,3.50
2023-03-05T23:35:37.702Z,3.50
2023-03-05T23:38:08.465Z,3.40
2023-03-05T23:40:42.210Z,3.40
2023-03-05T23:43:09.034Z,3.40
2023-03-05T23:45:35.800Z,3.40
2023-03-05T23:48:02.587Z,3.40
2023-03-05T23:50:32.361Z,3.40
2023-03-05T23:53:02.055Z,3.40
2023-03-05T23:55:39.482Z,3.40
2023-03-05T23:58:06.798Z,3.40
